Aérodrome :
LOGIN :

S'inscrire | Disclaimer

   EN    FR    IT 

 










Légende :    VFR   VFR Marginal   IFR   IFR Intensif   IFR Très Intensif
Visi : 
Plafond : 
>= 8 km
>= 3000ft
5 à 8 km
1000 à 3000 ft
1500m à 5 km
500 à 1000 ft
800 à 1500m
200 à 500 ft
< 800m
< 200 ft
Symboles :   Orages  Brouillard  Fortes neiges  Fortes précipitations  Vent > 20 kt
SIGMETs :   Divers  Orages  Givrage  Turbulence  Onde Orograph.  Cendres Volcan.







- Altitude de l'aérodrome : 15 ft
- Code IATA : BHD
- Voir les cartes d'approche


EGAC - George Best Belfast City

DERNIER METAR :
  • 121750Z 20013KT 9999 BKN009 OVC021 04/04 Q0997

METARs EXPIRÉS :
  • 121720Z 20012KT 7000 -RA BKN012 OVC019 04/04 Q0997
  • 121650Z 19010KT 7000 -RA BKN011 OVC025 04/04 Q0998 RERA
  • 121620Z 18011KT 5000 RA FEW010 BKN013 OVC035 04/03 Q0998
  • 121550Z 18011KT 7000 RA FEW010 SCT013 BKN024 04/03 Q0998
  • 121520Z 19013KT 4000 -RA FEW010 SCT020 BKN026 04/03 Q0999
  • 121450Z 20009KT 9999 -RA FEW011 SCT025 BKN030 04/03 Q0999

TAF TAF EGAC
Valide du 12 à 18h jusqu'au 12 à 22h UTC


121701Z 1218/1222 19010KT 9999 FEW010 SCT025
TEMPO 1218/1220 21017G27KT 4000 RADZ BKN007
BECMG 1219/1222 26010KT
ATIS : +44 02890 935 124
Pas de NOTAMs connus pour ce terrain.



MET'MAP, la Météo Aéronautique d'un coup d'oeil ! - Copyright ORBIFLY Décembre 2007 - Disclaimer

ORBIFLY MET'MAP TEAM :

Programmation & Développement : Alexandra Zaïnal
Conception & Développement : Baudouin d'Aumeries
Co-Programmation & Développement : Marc-Olivier Méhu
Soutien technique & logistique : Manuel Goepfert

Contact : metmap@orbifly.com




SOURCES & CREDITS :

   NOAA